Portada
METAR-TAF:

METAR-TAF

Aeropuertos :

Aeropuerto Internacional Hato

Curazao, Antillas Neerlandesas

latitud: 12-12N, longitud: 068-58W, altitud: 9 m

Observación

El informe se hizo hace 57 minutos, a las 08:00 UTC
Viento 4 kt del sureste
Temperatura 26°C
Humedad 89%
Presión 1012 hPa
Visibilidad 10 km o más
lluvia ligera

METAR: TNCC 150800Z AUTO 13004KT 9999 -RA NCD 26/24 Q1012 NOSIG

Hora: 04:57 (08:57 UTC)

Pronóstico

El informe se hizo hace 5 horas y 17 minutos, a las 03:40 UTC
Pronóstico válido del 15 a las 06 UTC al 16 a las 06 UTC
Viento 6 kt del este-sureste
Visibilidad 10 km o más
Nubes dispersas a una altura de 1600 ft
Temporalmente
del 15 a las 06 UTC al 15 a las 09 UTC
Cielo nuboso a una altura de 1400 ft
Temporalmente
del 15 a las 16 UTC al 15 a las 22 UTC
Viento 10 kt del este con ráfagas de 20 kt

TAF: TNCC 150340Z 1506/1606 12006KT 9999 SCT016 TEMPO 1506/1509 BKN014 TEMPO 1516/1522 10010G20KT

Observaciones y pronósticos meteorológicos de más de 4000 aeropuertos (mensajes METAR y TAF).

Los puntos amarillos y rojos representan las estaciones disponibles.

Ponga el ratón en el punto deseado para ver el nombre de la estación.

Haga clic para ver las observaciones y los pronósticos meteorológicos.

Para cambiar el mapa : haga clic en los botones verdes con una cruz de color negro para hacer un zoom, en el botón verde con un guión para alejar o en las flechas verdes para mapas adyacentes.


METAR-TAF: